This is the latest recevied weather packets stored in our database for station/object XE2RCS-1. If no packets are shown the sender has not sent any weather packets the latest 10 day(s).
| Time | Temp. | Humidity | Pressure | Rain* | Wind** | Luminosity | Snow |
|---|---|---|---|---|---|---|---|
| 1777974461 | 21.11° C | 36% | 1010 hPa | 0 mm | - | - | - |
| 1777973860 | 21.11° C | 36% | 1010 hPa | 0 mm | - | - | - |
| 1777973260 | 21.11° C | 41% | 1011 hPa | 0 mm | - | - | - |
| 1777972659 | 21.11° C | 40% | 1009 hPa | 0 mm | - | - | - |
| 1777972059 | 20.56° C | 40% | 1009 hPa | 0 mm | - | - | - |
| 1777971458 | 20.56° C | 41% | 1009 hPa | 0 mm | - | - | - |
| 1777970857 | 20° C | 43% | 1009 hPa | 0 mm | - | - | - |
| 1777970257 | 19.44° C | 43% | 1009 hPa | 0 mm | - | - | - |
| 1777969656 | 19.44° C | 40% | 1009 hPa | 0 mm | - | - | - |
| 1777969056 | 19.44° C | 41% | 1009 hPa | 0 mm | - | - | - |
| 1777968455 | 19.44° C | 41% | 1009 hPa | 0 mm | - | - | - |
| 1777967855 | 20° C | 40% | 1009 hPa | 0 mm | - | - | - |
| 1777967254 | 20° C | 41% | 1009 hPa | 0 mm | - | - | - |
| 1777966653 | 20° C | 42% | 1009 hPa | 0 mm | - | - | - |
| 1777966053 | 20° C | 46% | 1015 hPa | 0 mm | - | - | - |
| 1777965452 | 20° C | 48% | 1014 hPa | 0 mm | - | - | - |
| 1777964851 | 20° C | 48% | 1014 hPa | 0 mm | - | - | - |
| 1777964251 | 20° C | 48% | 1011 hPa | 0 mm | - | - | - |
| 1777963650 | 20.56° C | 50% | 1011 hPa | 0 mm | - | - | - |
| 1777963050 | 20.56° C | 52% | 1011 hPa | 0 mm | - | - | - |
| 1777962449 | 20.56° C | 55% | 1012 hPa | 0 mm | - | - | - |
| 1777961849 | 20.56° C | 56% | 1012 hPa | 0 mm | - | - | - |
| 1777961248 | 20.56° C | 56% | 1012 hPa | 0 mm | - | - | - |
| 1777960647 | 20.56° C | 55% | 1012 hPa | 0 mm | - | - | - |
| 1777960047 | 20.56° C | 55% | 1012 hPa | 0 mm | - | - | - |
* Rain latest hour (hover to see other rain measurements)
** Current wind speed in m/s (hover to see current wind gust speed)